createdAt,value
2023-01-13T00:01:29.206Z,35.09
2023-01-13T00:03:57.183Z,35.10
2023-01-13T00:06:26.342Z,34.97
2023-01-13T00:08:54.154Z,35.10
2023-01-13T00:11:23.061Z,34.79
2023-01-13T00:13:50.743Z,35.20
2023-01-13T00:16:19.815Z,35.17
2023-01-13T00:18:49.158Z,35.15
2023-01-13T00:21:20.157Z,35.21
2023-01-13T00:23:48.651Z,35.47
2023-01-13T00:26:19.744Z,35.30
2023-01-13T00:28:48.227Z,34.95
2023-01-13T00:31:21.465Z,35.07
2023-01-13T00:33:51.095Z,35.14
2023-01-13T00:36:21.082Z,35.26
2023-01-13T00:38:49.057Z,35.00
2023-01-13T00:41:22.609Z,34.95
2023-01-13T00:43:50.933Z,35.05
2023-01-13T00:46:21.421Z,35.39
2023-01-13T00:48:49.967Z,35.32
2023-01-13T00:51:20.402Z,35.20
2023-01-13T00:53:50.944Z,35.06
2023-01-13T00:56:41.002Z,35.08
2023-01-13T00:59:13.677Z,35.06
2023-01-13T01:01:42.213Z,35.17
2023-01-13T01:04:10.344Z,35.12
2023-01-13T01:06:38.718Z,34.98
2023-01-13T01:09:06.535Z,34.81
2023-01-13T01:11:35.141Z,34.82
2023-01-13T01:14:04.298Z,34.68
2023-01-13T01:16:34.429Z,34.88
2023-01-13T01:19:02.559Z,34.87
2023-01-13T01:21:30.315Z,34.96
2023-01-13T01:24:01.474Z,34.81
2023-01-13T01:26:30.713Z,34.93
2023-01-13T01:29:02.347Z,34.58
2023-01-13T01:31:33.258Z,34.65
2023-01-13T01:34:02.026Z,34.60
2023-01-13T01:36:35.191Z,35.04
2023-01-13T01:39:04.483Z,34.99
2023-01-13T01:41:34.308Z,34.64
2023-01-13T01:44:26.873Z,34.59
2023-01-13T01:46:56.636Z,34.47
2023-01-13T01:49:33.500Z,34.44
2023-01-13T01:52:07.015Z,34.55
2023-01-13T01:54:59.977Z,34.74
2023-01-13T01:57:33.224Z,34.46
2023-01-13T02:00:02.304Z,34.36
2023-01-13T02:02:42.274Z,34.47
2023-01-13T02:05:11.212Z,34.69
2023-01-13T02:07:41.414Z,34.29
2023-01-13T02:10:12.982Z,35.05
2023-01-13T02:12:44.444Z,34.84
2023-01-13T02:15:15.379Z,35.19
2023-01-13T02:18:02.017Z,34.88
2023-01-13T02:20:44.811Z,34.73
2023-01-13T02:23:46.558Z,35.12
2023-01-13T02:26:17.155Z,34.88
2023-01-13T02:29:34.459Z,34.72
2023-01-13T02:32:15.056Z,34.95
2023-01-13T02:34:52.317Z,35.02
2023-01-13T02:37:22.557Z,34.98
2023-01-13T02:40:38.765Z,35.01
2023-01-13T02:43:36.512Z,35.09
2023-01-13T02:46:28.398Z,35.14
2023-01-13T02:49:01.473Z,35.20
2023-01-13T02:51:31.809Z,35.15
2023-01-13T02:54:12.695Z,34.93
2023-01-13T02:56:44.577Z,34.96
2023-01-13T02:59:13.327Z,35.28
2023-01-13T03:01:42.924Z,34.96
2023-01-13T03:04:15.714Z,35.10
2023-01-13T03:07:02.398Z,35.21
2023-01-13T03:09:36.788Z,35.14
2023-01-13T03:12:43.525Z,35.39
2023-01-13T03:15:11.216Z,35.34
2023-01-13T03:18:04.821Z,35.41
2023-01-13T03:20:47.922Z,35.29
2023-01-13T03:23:47.960Z,35.35
2023-01-13T03:26:49.513Z,35.36
2023-01-13T03:29:32.715Z,35.66
2023-01-13T03:32:07.313Z,35.61
2023-01-13T03:34:44.288Z,35.40
2023-01-13T03:37:14.768Z,35.70
2023-01-13T03:39:47.986Z,35.68
2023-01-13T03:42:23.326Z,35.48
2023-01-13T03:45:14.021Z,35.30
2023-01-13T03:47:54.239Z,35.48
2023-01-13T03:50:28.670Z,35.71
2023-01-13T03:53:02.854Z,35.90
2023-01-13T03:55:36.590Z,35.65
2023-01-13T03:58:18.121Z,35.78
2023-01-13T04:01:17.197Z,35.84
2023-01-13T04:03:50.936Z,35.75
2023-01-13T04:06:38.379Z,35.84
2023-01-13T04:09:24.219Z,35.56
2023-01-13T04:12:09.414Z,35.36
2023-01-13T04:14:38.223Z,35.78
2023-01-13T04:17:06.891Z,35.73
2023-01-13T04:19:34.736Z,35.85
2023-01-13T04:22:02.709Z,35.69
2023-01-13T04:24:30.989Z,35.49
2023-01-13T04:26:58.756Z,35.44
2023-01-13T04:29:26.809Z,35.55
2023-01-13T04:31:54.943Z,35.36
2023-01-13T04:34:22.654Z,35.15
2023-01-13T04:36:50.306Z,35.39
2023-01-13T04:39:18.196Z,35.51
2023-01-13T04:42:02.731Z,35.09
2023-01-13T04:44:35.280Z,35.44
2023-01-13T04:47:03.520Z,35.22
2023-01-13T04:49:31.614Z,35.38
2023-01-13T04:51:59.509Z,35.51
2023-01-13T04:54:27.296Z,35.49
2023-01-13T04:56:55.087Z,35.37
2023-01-13T04:59:23.059Z,35.34
2023-01-13T05:01:50.950Z,35.08
2023-01-13T05:04:18.970Z,35.35
2023-01-13T05:06:46.730Z,34.99
2023-01-13T05:09:16.185Z,34.98
2023-01-13T05:12:02.524Z,35.26
2023-01-13T05:14:48.954Z,35.47
2023-01-13T05:17:23.045Z,35.34
2023-01-13T05:19:51.341Z,35.07
2023-01-13T05:22:37.750Z,35.04
2023-01-13T05:25:24.507Z,35.67
2023-01-13T05:27:58.034Z,35.73
2023-01-13T05:30:28.492Z,35.45
2023-01-13T05:32:57.202Z,35.31
2023-01-13T05:35:25.282Z,35.66
2023-01-13T05:37:55.164Z,36.26
2023-01-13T05:40:41.917Z,36.28
2023-01-13T05:43:21.333Z,36.25
2023-01-13T05:46:09.680Z,36.98
2023-01-13T05:48:39.986Z,36.90
2023-01-13T05:51:09.996Z,36.98
2023-01-13T05:53:38.310Z,36.47
2023-01-13T05:56:07.763Z,36.41
2023-01-13T05:58:35.836Z,36.49
2023-01-13T06:01:08.686Z,36.62
2023-01-13T06:03:37.393Z,36.56
2023-01-13T06:06:05.577Z,36.23
2023-01-13T06:08:36.945Z,36.39
2023-01-13T06:11:06.129Z,36.61
2023-01-13T06:13:33.920Z,36.70
2023-01-13T06:16:01.825Z,36.83
2023-01-13T06:18:29.758Z,36.81
2023-01-13T06:20:57.690Z,37.30
2023-01-13T06:23:26.746Z,37.20
2023-01-13T06:26:12.428Z,37.01
2023-01-13T06:28:40.237Z,37.18
2023-01-13T06:31:10.431Z,36.53
2023-01-13T06:33:44.074Z,36.40
2023-01-13T06:36:23.277Z,37.17
2023-01-13T06:38:56.348Z,37.38
2023-01-13T06:41:43.599Z,36.68
2023-01-13T06:44:11.678Z,36.51
2023-01-13T06:46:39.516Z,36.87
2023-01-13T06:49:07.606Z,36.91
2023-01-13T06:51:37.581Z,37.31
2023-01-13T06:54:05.846Z,37.40
2023-01-13T06:56:33.770Z,37.78
2023-01-13T06:59:02.606Z,37.29
2023-01-13T07:01:30.725Z,37.38
2023-01-13T07:03:58.577Z,37.59
2023-01-13T07:06:26.416Z,37.39
2023-01-13T07:08:54.391Z,36.81
2023-01-13T07:11:22.247Z,36.63
2023-01-13T07:14:08.555Z,36.50
2023-01-13T07:16:36.452Z,36.88
2023-01-13T07:19:04.536Z,36.65
2023-01-13T07:21:32.252Z,36.77
2023-01-13T07:24:00.227Z,36.90
2023-01-13T07:26:28.044Z,37.10
2023-01-13T07:28:55.959Z,37.13
2023-01-13T07:31:23.997Z,36.71
2023-01-13T07:33:51.774Z,36.88
2023-01-13T07:36:19.605Z,36.73
2023-01-13T07:38:47.406Z,37.18
2023-01-13T07:41:34.000Z,36.51
2023-01-13T07:44:07.344Z,37.02
2023-01-13T07:46:35.008Z,36.53
2023-01-13T07:49:03.273Z,36.92
2023-01-13T07:51:31.220Z,36.91
2023-01-13T07:53:58.910Z,36.88
2023-01-13T07:56:26.733Z,36.73
2023-01-13T07:58:54.569Z,37.01
2023-01-13T08:01:22.628Z,36.69
2023-01-13T08:03:50.525Z,37.62
2023-01-13T08:06:18.276Z,38.03
2023-01-13T08:08:46.139Z,37.00
2023-01-13T08:11:14.033Z,36.63
2023-01-13T08:13:41.881Z,37.07
2023-01-13T08:16:13.400Z,37.54
2023-01-13T08:18:43.974Z,37.34
2023-01-13T08:21:14.026Z,37.55
2023-01-13T08:23:43.262Z,37.10
2023-01-13T08:26:17.388Z,37.99
2023-01-13T08:28:46.006Z,37.55
2023-01-13T08:31:16.751Z,37.95
2023-01-13T08:33:44.875Z,38.01
2023-01-13T08:36:14.026Z,39.57
2023-01-13T08:38:42.519Z,38.34
2023-01-13T08:41:13.413Z,38.31
2023-01-13T08:43:41.543Z,38.18
2023-01-13T08:46:10.786Z,38.95
2023-01-13T08:48:38.758Z,37.82
2023-01-13T08:51:09.170Z,37.79
2023-01-13T08:53:36.992Z,37.81
2023-01-13T08:56:11.958Z,38.11
2023-01-13T08:58:40.806Z,38.07
2023-01-13T09:01:10.517Z,38.21
2023-01-13T09:03:39.466Z,37.76
2023-01-13T09:06:07.178Z,37.94
2023-01-13T09:08:35.051Z,37.57
2023-01-13T09:11:22.779Z,37.18
2023-01-13T09:13:50.729Z,37.84
2023-01-13T09:16:18.708Z,38.12
2023-01-13T09:18:47.898Z,37.31
2023-01-13T09:21:17.059Z,37.35
2023-01-13T09:23:44.896Z,37.61
2023-01-13T09:26:16.748Z,37.78
2023-01-13T09:28:45.115Z,37.48
2023-01-13T09:31:14.244Z,37.84
2023-01-13T09:34:00.468Z,37.49
2023-01-13T09:36:28.552Z,37.67
2023-01-13T09:38:56.458Z,38.21
2023-01-13T09:41:48.051Z,37.79
2023-01-13T09:44:40.024Z,37.95
2023-01-13T09:47:16.407Z,38.60
2023-01-13T09:49:44.397Z,38.64
2023-01-13T09:52:26.965Z,37.98
2023-01-13T09:54:54.912Z,37.88
2023-01-13T09:57:22.730Z,42.09
2023-01-13T09:59:51.112Z,39.03
2023-01-13T10:02:51.213Z,37.81
2023-01-13T10:05:34.879Z,37.55
2023-01-13T10:08:16.186Z,37.22
2023-01-13T10:10:49.975Z,36.80
2023-01-13T10:13:31.068Z,36.68
2023-01-13T10:16:10.870Z,37.02
2023-01-13T10:19:05.235Z,36.96
2023-01-13T10:21:49.772Z,37.46
2023-01-13T10:24:59.248Z,37.69
2023-01-13T10:27:35.873Z,38.12
2023-01-13T10:30:31.514Z,37.98
2023-01-13T10:33:01.725Z,37.99
2023-01-13T10:35:50.964Z,37.63
2023-01-13T10:38:46.089Z,37.57
2023-01-13T10:41:17.110Z,37.64
2023-01-13T10:44:09.397Z,37.39
2023-01-13T10:46:56.323Z,37.13
2023-01-13T10:49:36.483Z,36.82
2023-01-13T10:52:25.666Z,36.58
2023-01-13T10:54:55.296Z,36.79
2023-01-13T10:57:28.485Z,36.91
2023-01-13T10:59:56.570Z,36.80
2023-01-13T11:02:30.929Z,36.06
2023-01-13T11:05:23.003Z,35.89
2023-01-13T11:07:55.104Z,36.49
2023-01-13T11:10:32.737Z,36.38
2023-01-13T11:13:16.213Z,36.51
2023-01-13T11:15:55.724Z,35.97
2023-01-13T11:18:41.281Z,36.55
2023-01-13T11:21:37.993Z,36.77
2023-01-13T11:24:21.060Z,36.99
2023-01-13T11:27:19.142Z,36.84
2023-01-13T11:30:14.928Z,36.55
2023-01-13T11:33:15.894Z,36.38
2023-01-13T11:35:58.128Z,36.61
2023-01-13T11:38:47.938Z,36.23
2023-01-13T11:41:27.748Z,36.92
2023-01-13T11:44:18.008Z,37.25
2023-01-13T11:46:49.325Z,36.93
2023-01-13T11:49:29.557Z,36.79
2023-01-13T11:52:06.986Z,36.67
2023-01-13T11:54:50.148Z,37.09
2023-01-13T11:57:30.280Z,36.97
2023-01-13T12:00:05.967Z,36.82
2023-01-13T12:02:52.622Z,36.93
2023-01-13T12:05:58.828Z,37.44
2023-01-13T12:08:45.048Z,37.80
2023-01-13T12:11:19.028Z,37.61
2023-01-13T12:13:58.936Z,37.50
2023-01-13T12:16:30.491Z,37.28
2023-01-13T12:19:07.815Z,36.94
2023-01-13T12:21:41.365Z,36.84
2023-01-13T12:24:19.055Z,36.80
2023-01-13T12:26:55.108Z,36.82
2023-01-13T12:29:31.208Z,36.55
2023-01-13T12:32:02.263Z,37.09
2023-01-13T12:34:50.003Z,37.28
2023-01-13T12:37:26.737Z,37.96
2023-01-13T12:40:03.400Z,37.58
2023-01-13T12:43:00.892Z,37.32
2023-01-13T12:45:33.763Z,37.16
2023-01-13T12:48:01.984Z,37.44
2023-01-13T12:50:29.652Z,37.00
2023-01-13T12:53:21.462Z,37.17
2023-01-13T12:55:53.254Z,36.94
2023-01-13T12:58:28.476Z,36.79
2023-01-13T13:01:11.106Z,37.29
2023-01-13T13:03:39.663Z,37.32
2023-01-13T13:06:13.789Z,37.36
2023-01-13T13:08:44.758Z,37.97
2023-01-13T13:11:34.534Z,37.34
2023-01-13T13:14:05.017Z,37.58
2023-01-13T13:16:53.005Z,37.91
2023-01-13T13:19:21.456Z,37.77
2023-01-13T13:22:21.532Z,37.85
2023-01-13T13:24:49.264Z,37.59
2023-01-13T13:27:32.305Z,38.11
2023-01-13T13:30:03.467Z,38.18
2023-01-13T13:32:53.554Z,37.23
2023-01-13T13:35:40.513Z,37.36
2023-01-13T13:39:04.120Z,37.12
2023-01-13T13:41:54.771Z,36.82
2023-01-13T13:44:59.707Z,36.22
2023-01-13T13:47:36.021Z,35.67
2023-01-13T13:50:22.456Z,35.80
2023-01-13T13:52:58.761Z,35.81
2023-01-13T13:55:29.113Z,35.92
2023-01-13T13:57:58.033Z,35.97
2023-01-13T14:00:29.852Z,36.34
2023-01-13T14:03:01.624Z,40.11
2023-01-13T14:05:34.067Z,43.93
2023-01-13T14:08:17.929Z,39.60
2023-01-13T14:10:46.615Z,40.23
2023-01-13T14:13:29.539Z,39.13
2023-01-13T14:16:03.445Z,37.45
2023-01-13T14:18:34.770Z,38.04
2023-01-13T14:21:16.849Z,37.96
2023-01-13T14:23:53.867Z,36.61
2023-01-13T14:26:27.787Z,36.71
2023-01-13T14:29:01.943Z,36.12
2023-01-13T14:31:32.145Z,36.13
2023-01-13T14:34:03.509Z,36.82
2023-01-13T14:36:51.659Z,36.42
2023-01-13T14:39:25.240Z,35.62
2023-01-13T14:41:53.922Z,35.70
2023-01-13T14:44:32.469Z,36.80
2023-01-13T14:47:18.128Z,35.54
2023-01-13T14:50:28.337Z,35.61
2023-01-13T14:52:57.607Z,35.71
2023-01-13T14:55:28.982Z,35.17
2023-01-13T14:58:21.556Z,35.02
2023-01-13T15:00:51.290Z,35.43
2023-01-13T15:03:21.541Z,35.42
2023-01-13T15:05:51.577Z,35.78
2023-01-13T15:08:34.712Z,35.38
2023-01-13T15:11:05.967Z,35.82
2023-01-13T15:13:53.141Z,35.97
2023-01-13T15:16:25.229Z,36.82
2023-01-13T15:18:54.947Z,36.90
2023-01-13T15:21:23.565Z,37.40
2023-01-13T15:23:51.556Z,37.12
2023-01-13T15:26:27.888Z,37.11
2023-01-13T15:28:58.373Z,37.31
2023-01-13T15:31:27.715Z,37.23
2023-01-13T15:33:55.552Z,38.65
2023-01-13T15:36:29.990Z,38.60
2023-01-13T15:38:59.573Z,38.59
2023-01-13T15:41:46.114Z,38.28
2023-01-13T15:44:35.130Z,37.22
2023-01-13T15:47:07.642Z,37.65
2023-01-13T15:49:44.134Z,36.99
2023-01-13T15:52:21.666Z,36.95
2023-01-13T15:54:51.164Z,37.18
2023-01-13T15:57:34.486Z,37.14
2023-01-13T16:00:15.866Z,37.09
2023-01-13T16:02:46.612Z,37.48
2023-01-13T16:05:14.736Z,37.25
2023-01-13T16:07:42.539Z,37.54
2023-01-13T16:10:29.279Z,37.00
2023-01-13T16:12:57.431Z,36.98
2023-01-13T16:15:26.236Z,38.58
2023-01-13T16:17:57.544Z,38.08
2023-01-13T16:20:27.065Z,38.11
2023-01-13T16:22:54.885Z,38.58
2023-01-13T16:25:26.168Z,39.14
2023-01-13T16:27:54.366Z,39.95
2023-01-13T16:30:37.336Z,40.69
2023-01-13T16:33:05.184Z,40.09
2023-01-13T16:35:33.265Z,40.33
2023-01-13T16:38:01.178Z,40.19
2023-01-13T16:40:33.528Z,39.70
2023-01-13T16:43:03.789Z,39.38
2023-01-13T16:45:32.159Z,39.64
2023-01-13T16:48:00.444Z,40.08
2023-01-13T16:50:41.112Z,40.34
2023-01-13T16:53:10.601Z,39.70
2023-01-13T16:55:40.349Z,40.77
2023-01-13T16:58:17.507Z,39.92
2023-01-13T17:00:48.207Z,40.15
2023-01-13T17:03:17.027Z,39.83
2023-01-13T17:05:47.758Z,39.87
2023-01-13T17:08:20.223Z,40.17
2023-01-13T17:10:48.310Z,39.52
2023-01-13T17:13:17.340Z,40.10
2023-01-13T17:15:46.222Z,39.68
2023-01-13T17:18:14.063Z,40.09
2023-01-13T17:20:42.266Z,40.48
2023-01-13T17:23:10.124Z,39.77
2023-01-13T17:25:37.951Z,39.88
2023-01-13T17:28:05.822Z,39.57
2023-01-13T17:30:33.731Z,39.79
2023-01-13T17:33:01.583Z,40.17
2023-01-13T17:35:29.384Z,40.07
2023-01-13T17:37:57.116Z,39.88
2023-01-13T17:40:24.940Z,39.86
2023-01-13T17:42:52.944Z,39.63
2023-01-13T17:45:20.742Z,39.58
2023-01-13T17:47:48.489Z,39.83
2023-01-13T17:50:17.552Z,41.03
2023-01-13T17:52:45.223Z,40.74
2023-01-13T17:55:13.282Z,41.09
2023-01-13T17:57:41.183Z,41.96
2023-01-13T18:00:09.669Z,41.92
2023-01-13T18:02:40.341Z,42.00
2023-01-13T18:05:08.596Z,41.94
2023-01-13T18:07:36.385Z,41.51
2023-01-13T18:10:04.552Z,41.22
2023-01-13T18:12:32.285Z,41.19
2023-01-13T18:15:01.573Z,41.52
2023-01-13T18:17:29.449Z,41.54
2023-01-13T18:20:15.805Z,41.72
2023-01-13T18:23:01.812Z,40.85
2023-01-13T18:25:47.810Z,40.63
2023-01-13T18:28:16.078Z,40.64
2023-01-13T18:30:44.653Z,40.50
2023-01-13T18:33:12.539Z,39.86
2023-01-13T18:35:40.450Z,40.42
2023-01-13T18:38:08.742Z,40.36
2023-01-13T18:40:37.616Z,40.26
2023-01-13T18:43:05.430Z,40.00
2023-01-13T18:45:33.372Z,40.75
2023-01-13T18:48:05.452Z,40.49
2023-01-13T18:50:37.238Z,40.61
2023-01-13T18:53:05.033Z,40.22
2023-01-13T18:55:32.913Z,39.53
2023-01-13T18:58:01.038Z,39.34
2023-01-13T19:00:29.602Z,39.24
2023-01-13T19:05:36.103Z,39.48
2023-01-13T19:08:04.907Z,39.62
2023-01-13T19:10:33.361Z,39.43
2023-01-13T19:13:02.906Z,39.25
2023-01-13T19:15:30.890Z,39.27
2023-01-13T19:17:59.078Z,39.51
2023-01-13T19:20:26.870Z,40.34
2023-01-13T19:22:55.092Z,40.47
2023-01-13T19:25:23.100Z,41.59
2023-01-13T19:27:50.917Z,41.13
2023-01-13T19:30:18.896Z,41.01
2023-01-13T19:32:46.818Z,40.82
2023-01-13T19:35:18.249Z,41.13
2023-01-13T19:37:46.135Z,41.07
2023-01-13T19:40:14.289Z,39.45
2023-01-13T19:43:04.620Z,38.74
2023-01-13T19:45:35.329Z,39.31
2023-01-13T19:48:05.820Z,39.96
2023-01-13T19:50:43.985Z,40.07
2023-01-13T19:53:18.585Z,40.49
2023-01-13T19:55:48.697Z,39.69
2023-01-13T19:58:19.051Z,39.89
2023-01-13T20:00:48.636Z,39.18
2023-01-13T20:03:31.395Z,40.00
2023-01-13T20:06:08.389Z,40.31
2023-01-13T20:08:36.341Z,40.92
2023-01-13T20:11:33.135Z,40.12
2023-01-13T20:14:01.684Z,39.37
2023-01-13T20:16:31.081Z,39.48
2023-01-13T20:18:59.049Z,39.74
2023-01-13T20:21:27.221Z,39.26
2023-01-13T20:23:55.369Z,38.94
2023-01-13T20:26:23.375Z,39.04
2023-01-13T20:28:51.231Z,38.99
2023-01-13T20:31:19.077Z,39.09
2023-01-13T20:33:49.854Z,38.89
2023-01-13T20:36:31.261Z,39.31
2023-01-13T20:39:00.106Z,39.74
2023-01-13T20:41:46.766Z,39.48
2023-01-13T20:44:14.936Z,39.66
2023-01-13T20:46:45.023Z,39.35
2023-01-13T20:49:14.999Z,39.66
2023-01-13T20:51:43.424Z,39.46
2023-01-13T20:54:11.324Z,39.27
2023-01-13T20:56:41.182Z,38.68
2023-01-13T20:59:09.707Z,39.37
2023-01-13T21:01:39.195Z,39.25
2023-01-13T21:04:07.887Z,39.32
2023-01-13T21:06:36.440Z,39.61
2023-01-13T21:09:04.655Z,39.61
2023-01-13T21:11:50.922Z,39.21
2023-01-13T21:14:42.700Z,39.57
2023-01-13T21:17:30.748Z,39.52
2023-01-13T21:19:59.107Z,39.64
2023-01-13T21:22:30.102Z,39.31
2023-01-13T21:24:58.762Z,39.20
2023-01-13T21:27:26.534Z,39.04
2023-01-13T21:29:54.426Z,39.11
2023-01-13T21:32:22.675Z,39.18
2023-01-13T21:34:50.667Z,39.35
2023-01-13T21:37:18.816Z,39.11
2023-01-13T21:39:46.554Z,39.27
2023-01-13T21:42:33.839Z,39.92
2023-01-13T21:45:21.104Z,39.95
2023-01-13T21:47:49.489Z,40.34
2023-01-13T21:50:23.401Z,40.21
2023-01-13T21:52:55.444Z,40.35
2023-01-13T21:55:25.539Z,40.47
2023-01-13T21:57:54.593Z,40.38
2023-01-13T22:00:26.978Z,40.63
2023-01-13T22:02:55.159Z,40.67
2023-01-13T22:05:24.633Z,40.31
2023-01-13T22:07:53.088Z,40.80
2023-01-13T22:10:23.164Z,40.78
2023-01-13T22:12:57.757Z,40.98
2023-01-13T22:15:28.427Z,40.87
2023-01-13T22:17:57.307Z,41.11
2023-01-13T22:20:25.454Z,41.26
2023-01-13T22:22:53.355Z,41.57
2023-01-13T22:25:21.947Z,41.33
2023-01-13T22:27:49.761Z,41.31
2023-01-13T22:30:22.064Z,41.41
2023-01-13T22:32:50.888Z,41.01
2023-01-13T22:35:19.173Z,40.47
2023-01-13T22:37:46.871Z,40.41
2023-01-13T22:40:14.800Z,40.54
2023-01-13T22:42:43.164Z,40.13
2023-01-13T22:45:12.993Z,40.15
2023-01-13T22:47:40.803Z,39.73
2023-01-13T22:50:09.796Z,39.91
2023-01-13T22:52:37.563Z,39.99
2023-01-13T22:55:07.093Z,39.83
2023-01-13T22:57:46.982Z,39.49
2023-01-13T23:00:19.360Z,39.11
2023-01-13T23:02:47.282Z,39.01
2023-01-13T23:05:15.213Z,38.87
2023-01-13T23:07:43.068Z,39.06
2023-01-13T23:10:11.585Z,38.62
2023-01-13T23:12:39.421Z,38.71
2023-01-13T23:15:07.666Z,40.17
2023-01-13T23:17:35.392Z,39.32
2023-01-13T23:20:03.701Z,38.95
2023-01-13T23:22:31.494Z,39.13
2023-01-13T23:24:59.201Z,39.00
2023-01-13T23:27:27.025Z,40.19
2023-01-13T23:29:56.048Z,40.21
2023-01-13T23:32:23.882Z,40.03
2023-01-13T23:34:52.583Z,39.66
2023-01-13T23:37:20.329Z,39.60
2023-01-13T23:39:48.027Z,39.17
2023-01-13T23:42:16.205Z,39.06
2023-01-13T23:44:46.538Z,39.01
2023-01-13T23:47:14.337Z,38.57
2023-01-13T23:49:43.061Z,38.72
2023-01-13T23:52:11.105Z,38.84
2023-01-13T23:54:38.816Z,38.91
2023-01-13T23:57:06.635Z,39.17
2023-01-13T23:59:34.631Z,38.94
